North Haven, Maine
Current Conditions -  °F | °C
As of 11:35 PM on Saturday 22 Nov 2014 (Local Time) from KRKD Reporting Station
Few Clouds Few Clouds  
Wind Chill: 32°   Ceiling: Unl
Heat Index: 39°   Visibility: 10mi
Dew Point: 19°   Wind: 12mph
Humidity: 45%   Direction: 250°WSW
Pressure: 29.95"   Gusts: NA
Location:  44.13°N, 68.87°W
Report Text: KRKD 230435Z AUTO 25010KT 10SM FEW075 04/M07 A2995 RMK AO1
Loading
Personal Weather Stations






























Interactive Weather Map New forecast layout! Learn more

10-Day Weather Forecast

Advertisements
Track Severe Weather on mobile